sensor_id;sensor_type;location;lat;lon;timestamp;P1;durP1;ratioP1;P2;durP2;ratioP2
29776;SDS011;16677;52.224;7.484;2022-09-29T00:13:53;11.33;;;10.23;;
29776;SDS011;16677;52.224;7.484;2022-09-29T00:17:50;13.17;;;11.97;;
29776;SDS011;16677;52.224;7.484;2022-09-29T00:28:55;15.47;;;13.30;;
29776;SDS011;16677;52.224;7.484;2022-09-29T00:42:58;14.27;;;12.43;;
29776;SDS011;16677;52.224;7.484;2022-09-29T00:45:56;16.93;;;13.07;;
29776;SDS011;16677;52.224;7.484;2022-09-29T00:53:29;17.63;;;15.73;;
29776;SDS011;16677;52.224;7.484;2022-09-29T00:57:12;17.57;;;15.77;;
29776;SDS011;16677;52.224;7.484;2022-09-29T01:02:26;20.93;;;18.13;;
29776;SDS011;16677;52.224;7.484;2022-09-29T01:04:55;21.50;;;17.30;;
29776;SDS011;16677;52.224;7.484;2022-09-29T01:07:22;30.87;;;18.53;;
29776;SDS011;16677;52.224;7.484;2022-09-29T01:09:51;20.00;;;17.20;;
29776;SDS011;16677;52.224;7.484;2022-09-29T01:12:20;21.53;;;18.43;;
29776;SDS011;16677;52.224;7.484;2022-09-29T01:14:48;19.60;;;17.50;;
29776;SDS011;16677;52.224;7.484;2022-09-29T01:17:18;19.77;;;16.53;;
29776;SDS011;16677;52.224;7.484;2022-09-29T01:19:51;19.77;;;17.63;;
29776;SDS011;16677;52.224;7.484;2022-09-29T01:39:13;18.60;;;16.63;;
29776;SDS011;16677;52.224;7.484;2022-09-29T01:41:51;19.37;;;15.57;;
29776;SDS011;16677;52.224;7.484;2022-09-29T01:44:28;19.60;;;17.23;;
29776;SDS011;16677;52.224;7.484;2022-09-29T01:47:19;17.30;;;15.33;;
29776;SDS011;16677;52.224;7.484;2022-09-29T01:49:58;16.80;;;15.00;;
29776;SDS011;16677;52.224;7.484;2022-09-29T01:52:31;16.33;;;14.63;;
29776;SDS011;16677;52.224;7.484;2022-09-29T01:55:04;19.93;;;15.83;;
29776;SDS011;16677;52.224;7.484;2022-09-29T01:57:38;21.53;;;16.83;;
29776;SDS011;16677;52.224;7.484;2022-09-29T02:00:10;20.20;;;17.40;;
29776;SDS011;16677;52.224;7.484;2022-09-29T02:05:22;20.07;;;17.93;;
29776;SDS011;16677;52.224;7.484;2022-09-29T02:07:52;22.53;;;17.73;;
29776;SDS011;16677;52.224;7.484;2022-09-29T02:10:24;20.27;;;17.37;;
29776;SDS011;16677;52.224;7.484;2022-09-29T02:12:55;25.93;;;17.53;;
29776;SDS011;16677;52.224;7.484;2022-09-29T02:15:25;19.13;;;16.77;;
29776;SDS011;16677;52.224;7.484;2022-09-29T02:17:58;20.40;;;16.27;;
29776;SDS011;16677;52.224;7.484;2022-09-29T02:20:32;22.40;;;17.30;;
29776;SDS011;16677;52.224;7.484;2022-09-29T02:22:59;19.07;;;16.33;;
29776;SDS011;16677;52.224;7.484;2022-09-29T02:25:27;20.10;;;17.00;;
29776;SDS011;16677;52.224;7.484;2022-09-29T02:27:54;20.17;;;15.73;;
29776;SDS011;16677;52.224;7.484;2022-09-29T02:30:21;18.70;;;16.70;;
29776;SDS011;16677;52.224;7.484;2022-09-29T02:32:48;19.27;;;17.07;;
29776;SDS011;16677;52.224;7.484;2022-09-29T02:35:15;19.60;;;17.17;;
29776;SDS011;16677;52.224;7.484;2022-09-29T02:40:31;29.73;;;17.00;;
29776;SDS011;16677;52.224;7.484;2022-09-29T02:46:11;19.10;;;15.43;;
29776;SDS011;16677;52.224;7.484;2022-09-29T02:51:54;18.50;;;15.97;;
29776;SDS011;16677;52.224;7.484;2022-09-29T02:54:32;26.33;;;16.17;;
29776;SDS011;16677;52.224;7.484;2022-09-29T02:59:41;21.87;;;16.60;;
29776;SDS011;16677;52.224;7.484;2022-09-29T03:02:22;21.27;;;17.07;;
29776;SDS011;16677;52.224;7.484;2022-09-29T03:04:50;19.93;;;17.23;;
29776;SDS011;16677;52.224;7.484;2022-09-29T03:07:19;21.47;;;18.17;;
29776;SDS011;16677;52.224;7.484;2022-09-29T03:09:46;54.67;;;21.33;;
29776;SDS011;16677;52.224;7.484;2022-09-29T03:12:13;19.30;;;17.13;;
29776;SDS011;16677;52.224;7.484;2022-09-29T03:14:40;29.37;;;19.53;;
29776;SDS011;16677;52.224;7.484;2022-09-29T03:17:07;22.93;;;18.47;;
29776;SDS011;16677;52.224;7.484;2022-09-29T03:19:34;25.80;;;19.13;;
29776;SDS011;16677;52.224;7.484;2022-09-29T03:22:01;21.60;;;17.40;;
29776;SDS011;16677;52.224;7.484;2022-09-29T03:24:29;20.23;;;16.77;;
29776;SDS011;16677;52.224;7.484;2022-09-29T03:26:56;20.27;;;16.63;;
29776;SDS011;16677;52.224;7.484;2022-09-29T03:29:23;22.07;;;17.00;;
29776;SDS011;16677;52.224;7.484;2022-09-29T03:31:50;226.53;;;36.23;;
29776;SDS011;16677;52.224;7.484;2022-09-29T03:34:17;21.53;;;17.90;;
29776;SDS011;16677;52.224;7.484;2022-09-29T03:36:44;56.87;;;23.07;;
29776;SDS011;16677;52.224;7.484;2022-09-29T03:39:11;22.33;;;18.53;;
29776;SDS011;16677;52.224;7.484;2022-09-29T03:41:38;126.07;;;28.53;;
29776;SDS011;16677;52.224;7.484;2022-09-29T03:44:05;23.47;;;18.70;;
29776;SDS011;16677;52.224;7.484;2022-09-29T03:46:32;23.87;;;19.80;;
29776;SDS011;16677;52.224;7.484;2022-09-29T03:48:59;23.47;;;20.47;;
29776;SDS011;16677;52.224;7.484;2022-09-29T03:51:26;29.63;;;20.10;;
29776;SDS011;16677;52.224;7.484;2022-09-29T03:53:53;25.70;;;19.33;;
29776;SDS011;16677;52.224;7.484;2022-09-29T03:56:20;22.33;;;18.60;;
29776;SDS011;16677;52.224;7.484;2022-09-29T03:58:47;23.03;;;19.73;;
29776;SDS011;16677;52.224;7.484;2022-09-29T04:01:15;70.03;;;23.50;;
29776;SDS011;16677;52.224;7.484;2022-09-29T04:03:42;54.63;;;25.93;;
29776;SDS011;16677;52.224;7.484;2022-09-29T04:06:09;733.90;;;88.80;;
29776;SDS011;16677;52.224;7.484;2022-09-29T04:08:36;40.37;;;26.37;;
29776;SDS011;16677;52.224;7.484;2022-09-29T04:11:03;136.50;;;33.77;;
29776;SDS011;16677;52.224;7.484;2022-09-29T04:13:31;68.43;;;29.77;;
29776;SDS011;16677;52.224;7.484;2022-09-29T04:16:01;143.90;;;34.87;;
29776;SDS011;16677;52.224;7.484;2022-09-29T04:18:29;103.27;;;32.40;;
29776;SDS011;16677;52.224;7.484;2022-09-29T04:20:57;151.07;;;35.77;;
29776;SDS011;16677;52.224;7.484;2022-09-29T04:23:26;430.97;;;59.80;;
29776;SDS011;16677;52.224;7.484;2022-09-29T04:25:55;46.77;;;26.97;;
29776;SDS011;16677;52.224;7.484;2022-09-29T04:28:23;45.53;;;26.13;;
29776;SDS011;16677;52.224;7.484;2022-09-29T04:30:50;291.87;;;53.83;;
29776;SDS011;16677;52.224;7.484;2022-09-29T04:33:17;316.60;;;53.47;;
29776;SDS011;16677;52.224;7.484;2022-09-29T04:35:44;43.67;;;29.17;;
29776;SDS011;16677;52.224;7.484;2022-09-29T04:38:12;43.90;;;29.87;;
29776;SDS011;16677;52.224;7.484;2022-09-29T04:40:39;41.90;;;29.53;;
29776;SDS011;16677;52.224;7.484;2022-09-29T04:43:06;46.07;;;29.90;;
29776;SDS011;16677;52.224;7.484;2022-09-29T04:45:33;48.93;;;31.83;;
29776;SDS011;16677;52.224;7.484;2022-09-29T04:48:00;119.83;;;38.43;;
29776;SDS011;16677;52.224;7.484;2022-09-29T04:50:27;47.57;;;32.23;;
29776;SDS011;16677;52.224;7.484;2022-09-29T04:52:54;50.03;;;33.07;;
29776;SDS011;16677;52.224;7.484;2022-09-29T04:55:21;48.83;;;32.53;;
29776;SDS011;16677;52.224;7.484;2022-09-29T04:57:48;46.23;;;32.43;;
29776;SDS011;16677;52.224;7.484;2022-09-29T05:00:15;48.13;;;33.20;;
29776;SDS011;16677;52.224;7.484;2022-09-29T05:02:43;55.93;;;33.40;;
29776;SDS011;16677;52.224;7.484;2022-09-29T05:05:15;47.20;;;32.47;;
29776;SDS011;16677;52.224;7.484;2022-09-29T05:07:42;45.37;;;32.10;;
29776;SDS011;16677;52.224;7.484;2022-09-29T05:10:10;52.13;;;32.73;;
29776;SDS011;16677;52.224;7.484;2022-09-29T05:12:37;66.37;;;32.63;;
29776;SDS011;16677;52.224;7.484;2022-09-29T05:15:04;111.43;;;37.63;;
29776;SDS011;16677;52.224;7.484;2022-09-29T05:17:32;51.20;;;32.43;;
29776;SDS011;16677;52.224;7.484;2022-09-29T05:19:59;47.87;;;30.53;;
29776;SDS011;16677;52.224;7.484;2022-09-29T05:22:26;46.77;;;30.57;;
29776;SDS011;16677;52.224;7.484;2022-09-29T05:24:53;47.73;;;30.60;;
29776;SDS011;16677;52.224;7.484;2022-09-29T05:27:19;50.63;;;32.23;;
29776;SDS011;16677;52.224;7.484;2022-09-29T05:29:48;52.70;;;33.93;;
29776;SDS011;16677;52.224;7.484;2022-09-29T05:32:18;374.17;;;61.80;;
29776;SDS011;16677;52.224;7.484;2022-09-29T05:34:45;275.10;;;56.60;;
29776;SDS011;16677;52.224;7.484;2022-09-29T05:37:11;58.33;;;35.73;;
29776;SDS011;16677;52.224;7.484;2022-09-29T05:39:51;63.47;;;35.63;;
29776;SDS011;16677;52.224;7.484;2022-09-29T05:42:25;79.17;;;35.70;;
29776;SDS011;16677;52.224;7.484;2022-09-29T05:44:52;60.53;;;34.63;;
29776;SDS011;16677;52.224;7.484;2022-09-29T05:47:19;553.23;;;79.97;;
29776;SDS011;16677;52.224;7.484;2022-09-29T05:49:48;1505.03;;;178.63;;
29776;SDS011;16677;52.224;7.484;2022-09-29T05:52:15;64.93;;;36.30;;
29776;SDS011;16677;52.224;7.484;2022-09-29T05:54:42;59.37;;;34.93;;
29776;SDS011;16677;52.224;7.484;2022-09-29T05:57:08;65.27;;;33.73;;
29776;SDS011;16677;52.224;7.484;2022-09-29T05:59:36;111.07;;;32.93;;
29776;SDS011;16677;52.224;7.484;2022-09-29T06:02:03;99.37;;;32.27;;
29776;SDS011;16677;52.224;7.484;2022-09-29T06:04:30;87.47;;;31.13;;
29776;SDS011;16677;52.224;7.484;2022-09-29T06:06:57;79.87;;;36.27;;
29776;SDS011;16677;52.224;7.484;2022-09-29T06:09:24;69.40;;;31.83;;
29776;SDS011;16677;52.224;7.484;2022-09-29T06:11:50;88.70;;;32.67;;
29776;SDS011;16677;52.224;7.484;2022-09-29T06:14:18;430.13;;;65.13;;
29776;SDS011;16677;52.224;7.484;2022-09-29T06:16:45;74.90;;;31.10;;
29776;SDS011;16677;52.224;7.484;2022-09-29T06:19:12;95.87;;;32.03;;
29776;SDS011;16677;52.224;7.484;2022-09-29T06:21:39;57.90;;;29.63;;
29776;SDS011;16677;52.224;7.484;2022-09-29T06:24:06;121.90;;;31.03;;
29776;SDS011;16677;52.224;7.484;2022-09-29T06:26:33;249.50;;;42.03;;
29776;SDS011;16677;52.224;7.484;2022-09-29T06:29:00;76.17;;;27.90;;
29776;SDS011;16677;52.224;7.484;2022-09-29T06:31:28;89.73;;;31.10;;
29776;SDS011;16677;52.224;7.484;2022-09-29T06:33:58;56.20;;;28.87;;
29776;SDS011;16677;52.224;7.484;2022-09-29T06:36:30;49.43;;;28.10;;
29776;SDS011;16677;52.224;7.484;2022-09-29T06:39:19;41.33;;;26.93;;
29776;SDS011;16677;52.224;7.484;2022-09-29T06:41:46;46.47;;;27.17;;
29776;SDS011;16677;52.224;7.484;2022-09-29T06:44:23;44.77;;;26.67;;
29776;SDS011;16677;52.224;7.484;2022-09-29T06:46:51;91.73;;;32.53;;
29776;SDS011;16677;52.224;7.484;2022-09-29T06:49:20;48.83;;;26.40;;
29776;SDS011;16677;52.224;7.484;2022-09-29T06:51:47;487.07;;;71.07;;
29776;SDS011;16677;52.224;7.484;2022-09-29T06:54:16;36.47;;;25.43;;
29776;SDS011;16677;52.224;7.484;2022-09-29T06:56:48;34.40;;;24.17;;
29776;SDS011;16677;52.224;7.484;2022-09-29T07:04:32;96.50;;;30.70;;
29776;SDS011;16677;52.224;7.484;2022-09-29T07:07:19;50.73;;;25.80;;
29776;SDS011;16677;52.224;7.484;2022-09-29T07:10:08;40.60;;;24.97;;
29776;SDS011;16677;52.224;7.484;2022-09-29T07:12:56;35.83;;;25.20;;
29776;SDS011;16677;52.224;7.484;2022-09-29T07:15:41;37.07;;;24.07;;
29776;SDS011;16677;52.224;7.484;2022-09-29T07:21:38;85.40;;;29.53;;
29776;SDS011;16677;52.224;7.484;2022-09-29T07:25:01;32.27;;;25.27;;
29776;SDS011;16677;52.224;7.484;2022-09-29T07:27:31;31.47;;;25.03;;
29776;SDS011;16677;52.224;7.484;2022-09-29T07:30:06;33.03;;;25.40;;
29776;SDS011;16677;52.224;7.484;2022-09-29T07:48:55;37.90;;;26.40;;
29776;SDS011;16677;52.224;7.484;2022-09-29T07:51:51;48.87;;;27.07;;
29776;SDS011;16677;52.224;7.484;2022-09-29T07:55:11;38.20;;;27.70;;
29776;SDS011;16677;52.224;7.484;2022-09-29T07:58:09;39.43;;;27.60;;
29776;SDS011;16677;52.224;7.484;2022-09-29T08:00:51;38.93;;;27.50;;
29776;SDS011;16677;52.224;7.484;2022-09-29T08:03:26;42.87;;;29.23;;
29776;SDS011;16677;52.224;7.484;2022-09-29T08:05:56;42.47;;;28.17;;
29776;SDS011;16677;52.224;7.484;2022-09-29T08:08:28;51.13;;;28.83;;
29776;SDS011;16677;52.224;7.484;2022-09-29T09:02:28;44.45;;;40.25;;
29776;SDS011;16677;52.224;7.484;2022-09-29T09:22:05;47.72;;;43.03;;
29776;SDS011;16677;52.224;7.484;2022-09-29T09:25:03;45.72;;;41.28;;
29776;SDS011;16677;52.224;7.484;2022-09-29T09:28:02;44.90;;;40.60;;
29776;SDS011;16677;52.224;7.484;2022-09-29T09:30:49;49.47;;;44.47;;
29776;SDS011;16677;52.224;7.484;2022-09-29T09:35:59;38.10;;;34.53;;
29776;SDS011;16677;52.224;7.484;2022-09-29T09:38:46;36.08;;;32.50;;
29776;SDS011;16677;52.224;7.484;2022-09-29T09:41:16;37.50;;;34.00;;
29776;SDS011;16677;52.224;7.484;2022-09-29T09:49:46;30.90;;;27.70;;
29776;SDS011;16677;52.224;7.484;2022-09-29T09:52:35;33.30;;;30.15;;
29776;SDS011;16677;52.224;7.484;2022-09-29T09:55:37;32.38;;;29.30;;
29776;SDS011;16677;52.224;7.484;2022-09-29T10:01:39;31.60;;;28.65;;
29776;SDS011;16677;52.224;7.484;2022-09-29T10:19:21;53.47;;;48.10;;
29776;SDS011;16677;52.224;7.484;2022-09-29T10:21:49;27.27;;;24.53;;
29776;SDS011;16677;52.224;7.484;2022-09-29T10:24:28;28.27;;;24.67;;
29776;SDS011;16677;52.224;7.484;2022-09-29T10:27:00;47.13;;;42.10;;
29776;SDS011;16677;52.224;7.484;2022-09-29T10:32:08;25.77;;;23.27;;
29776;SDS011;16677;52.224;7.484;2022-09-29T10:34:41;24.40;;;21.93;;
29776;SDS011;16677;52.224;7.484;2022-09-29T10:37:26;25.20;;;22.70;;
29776;SDS011;16677;52.224;7.484;2022-09-29T10:40:12;23.43;;;21.03;;
29776;SDS011;16677;52.224;7.484;2022-09-29T10:42:53;23.70;;;21.23;;
29776;SDS011;16677;52.224;7.484;2022-09-29T10:45:26;23.10;;;20.80;;
29776;SDS011;16677;52.224;7.484;2022-09-29T10:50:25;23.83;;;21.27;;
29776;SDS011;16677;52.224;7.484;2022-09-29T10:53:15;24.10;;;21.70;;
29776;SDS011;16677;52.224;7.484;2022-09-29T10:56:15;24.30;;;21.90;;
29776;SDS011;16677;52.224;7.484;2022-09-29T10:58:52;22.23;;;20.13;;
29776;SDS011;16677;52.224;7.484;2022-09-29T11:01:31;20.67;;;18.63;;
29776;SDS011;16677;52.224;7.484;2022-09-29T11:07:09;15.97;;;11.27;;
29776;SDS011;16677;52.224;7.484;2022-09-29T11:09:39;13.63;;;12.37;;
29776;SDS011;16677;52.224;7.484;2022-09-29T11:12:41;12.63;;;11.43;;
29776;SDS011;16677;52.224;7.484;2022-09-29T11:15:24;10.37;;;9.37;;
29776;SDS011;16677;52.224;7.484;2022-09-29T11:18:38;12.00;;;10.80;;
29776;SDS011;16677;52.224;7.484;2022-09-29T11:35:16;12.00;;;9.43;;
29776;SDS011;16677;52.224;7.484;2022-09-29T11:40:28;7.53;;;6.77;;
29776;SDS011;16677;52.224;7.484;2022-09-29T11:57:13;6.07;;;3.93;;
29776;SDS011;16677;52.224;7.484;2022-09-29T12:00:14;4.10;;;3.57;;
29776;SDS011;16677;52.224;7.484;2022-09-29T12:03:06;6.13;;;3.97;;
29776;SDS011;16677;52.224;7.484;2022-09-29T12:08:53;6.57;;;5.23;;
29776;SDS011;16677;52.224;7.484;2022-09-29T12:15:02;11.13;;;8.87;;
29776;SDS011;16677;52.224;7.484;2022-09-29T12:17:46;8.03;;;6.10;;
29776;SDS011;16677;52.224;7.484;2022-09-29T12:20:31;7.47;;;6.70;;
29776;SDS011;16677;52.224;7.484;2022-09-29T12:23:03;6.53;;;4.53;;
29776;SDS011;16677;52.224;7.484;2022-09-29T12:25:36;9.70;;;8.23;;
29776;SDS011;16677;52.224;7.484;2022-09-29T12:28:12;44.43;;;32.03;;
29776;SDS011;16677;52.224;7.484;2022-09-29T12:30:48;4.93;;;3.40;;
29776;SDS011;16677;52.224;7.484;2022-09-29T12:50:47;4.50;;;3.20;;
29776;SDS011;16677;52.224;7.484;2022-09-29T12:56:32;5.77;;;3.40;;
29776;SDS011;16677;52.224;7.484;2022-09-29T13:02:01;6.93;;;4.37;;
29776;SDS011;16677;52.224;7.484;2022-09-29T13:05:07;4.10;;;3.80;;
29776;SDS011;16677;52.224;7.484;2022-09-29T13:22:35;6.27;;;4.17;;
29776;SDS011;16677;52.224;7.484;2022-09-29T13:25:29;4.33;;;3.97;;
29776;SDS011;16677;52.224;7.484;2022-09-29T13:28:21;5.70;;;3.80;;
29776;SDS011;16677;52.224;7.484;2022-09-29T13:31:00;4.50;;;3.50;;
29776;SDS011;16677;52.224;7.484;2022-09-29T13:33:31;3.20;;;2.90;;
29776;SDS011;16677;52.224;7.484;2022-09-29T13:35:59;5.27;;;3.60;;
29776;SDS011;16677;52.224;7.484;2022-09-29T13:38:28;3.80;;;3.30;;
29776;SDS011;16677;52.224;7.484;2022-09-29T13:46:37;53.23;;;39.07;;
29776;SDS011;16677;52.224;7.484;2022-09-29T13:59:29;3.00;;;2.80;;
29776;SDS011;16677;52.224;7.484;2022-09-29T14:01:57;3.53;;;3.00;;
29776;SDS011;16677;52.224;7.484;2022-09-29T14:07:12;5.13;;;2.93;;
29776;SDS011;16677;52.224;7.484;2022-09-29T14:10:05;3.60;;;2.80;;
29776;SDS011;16677;52.224;7.484;2022-09-29T14:12:58;4.87;;;3.10;;
29776;SDS011;16677;52.224;7.484;2022-09-29T14:15:27;6.90;;;3.00;;
29776;SDS011;16677;52.224;7.484;2022-09-29T14:18:03;3.20;;;2.90;;
29776;SDS011;16677;52.224;7.484;2022-09-29T14:20:43;3.70;;;2.90;;
29776;SDS011;16677;52.224;7.484;2022-09-29T14:29:15;4.20;;;2.90;;
29776;SDS011;16677;52.224;7.484;2022-09-29T14:31:47;4.30;;;2.70;;
29776;SDS011;16677;52.224;7.484;2022-09-29T14:34:16;3.73;;;3.27;;
29776;SDS011;16677;52.224;7.484;2022-09-29T14:36:45;3.27;;;3.03;;
29776;SDS011;16677;52.224;7.484;2022-09-29T14:39:14;3.03;;;2.70;;
29776;SDS011;16677;52.224;7.484;2022-09-29T14:41:57;3.60;;;3.30;;
29776;SDS011;16677;52.224;7.484;2022-09-29T14:44:24;6.13;;;2.87;;
29776;SDS011;16677;52.224;7.484;2022-09-29T14:54:01;3.40;;;3.10;;
29776;SDS011;16677;52.224;7.484;2022-09-29T14:57:02;3.40;;;2.80;;
29776;SDS011;16677;52.224;7.484;2022-09-29T14:59:43;3.23;;;2.70;;
29776;SDS011;16677;52.224;7.484;2022-09-29T15:02:21;3.77;;;2.57;;
29776;SDS011;16677;52.224;7.484;2022-09-29T15:04:52;2.30;;;2.10;;
29776;SDS011;16677;52.224;7.484;2022-09-29T15:07:23;2.30;;;2.10;;
29776;SDS011;16677;52.224;7.484;2022-09-29T15:09:56;2.63;;;2.07;;
29776;SDS011;16677;52.224;7.484;2022-09-29T15:12:26;2.90;;;2.70;;
29776;SDS011;16677;52.224;7.484;2022-09-29T15:14:54;9.37;;;8.40;;
29776;SDS011;16677;52.224;7.484;2022-09-29T15:25:33;5.30;;;4.07;;
29776;SDS011;16677;52.224;7.484;2022-09-29T15:28:05;3.43;;;2.20;;
29776;SDS011;16677;52.224;7.484;2022-09-29T15:30:48;2.23;;;2.00;;
29776;SDS011;16677;52.224;7.484;2022-09-29T15:33:21;3.17;;;2.07;;
29776;SDS011;16677;52.224;7.484;2022-09-29T15:35:51;3.47;;;2.33;;
29776;SDS011;16677;52.224;7.484;2022-09-29T15:40:54;2.73;;;2.47;;
29776;SDS011;16677;52.224;7.484;2022-09-29T15:43:25;3.60;;;2.40;;
29776;SDS011;16677;52.224;7.484;2022-09-29T15:48:22;3.67;;;2.50;;
29776;SDS011;16677;52.224;7.484;2022-09-29T15:50:49;3.23;;;2.30;;
29776;SDS011;16677;52.224;7.484;2022-09-29T15:53:17;2.57;;;2.20;;
29776;SDS011;16677;52.224;7.484;2022-09-29T15:55:44;2.70;;;2.50;;
29776;SDS011;16677;52.224;7.484;2022-09-29T15:58:32;3.83;;;2.40;;
29776;SDS011;16677;52.224;7.484;2022-09-29T16:00:58;2.37;;;1.93;;
29776;SDS011;16677;52.224;7.484;2022-09-29T16:06:25;3.27;;;2.20;;
29776;SDS011;16677;52.224;7.484;2022-09-29T16:09:05;2.50;;;2.30;;
29776;SDS011;16677;52.224;7.484;2022-09-29T16:11:44;3.33;;;2.50;;
29776;SDS011;16677;52.224;7.484;2022-09-29T16:14:18;3.43;;;2.47;;
29776;SDS011;16677;52.224;7.484;2022-09-29T16:16:49;3.47;;;2.30;;
29776;SDS011;16677;52.224;7.484;2022-09-29T16:21:53;2.97;;;2.60;;
29776;SDS011;16677;52.224;7.484;2022-09-29T16:24:29;3.03;;;2.53;;
29776;SDS011;16677;52.224;7.484;2022-09-29T16:27:00;3.87;;;2.30;;
29776;SDS011;16677;52.224;7.484;2022-09-29T16:31:59;2.97;;;2.77;;
29776;SDS011;16677;52.224;7.484;2022-09-29T16:34:48;3.17;;;2.47;;
29776;SDS011;16677;52.224;7.484;2022-09-29T16:37:16;3.10;;;2.80;;
29776;SDS011;16677;52.224;7.484;2022-09-29T16:39:47;5.10;;;2.60;;
29776;SDS011;16677;52.224;7.484;2022-09-29T16:42:23;2.53;;;2.33;;
29776;SDS011;16677;52.224;7.484;2022-09-29T16:44:53;3.33;;;2.60;;
29776;SDS011;16677;52.224;7.484;2022-09-29T16:47:27;4.77;;;2.40;;
29776;SDS011;16677;52.224;7.484;2022-09-29T16:49:59;3.60;;;2.93;;
29776;SDS011;16677;52.224;7.484;2022-09-29T16:52:43;4.33;;;2.83;;
29776;SDS011;16677;52.224;7.484;2022-09-29T16:58:03;6.63;;;3.30;;
29776;SDS011;16677;52.224;7.484;2022-09-29T17:00:35;4.30;;;3.33;;
29776;SDS011;16677;52.224;7.484;2022-09-29T17:03:02;5.13;;;3.40;;
29776;SDS011;16677;52.224;7.484;2022-09-29T17:05:38;6.23;;;4.30;;
29776;SDS011;16677;52.224;7.484;2022-09-29T17:08:14;7.07;;;3.70;;
29776;SDS011;16677;52.224;7.484;2022-09-29T17:10:41;4.23;;;3.83;;
29776;SDS011;16677;52.224;7.484;2022-09-29T17:13:13;5.57;;;3.97;;
29776;SDS011;16677;52.224;7.484;2022-09-29T17:15:41;3.93;;;3.53;;
29776;SDS011;16677;52.224;7.484;2022-09-29T17:18:14;4.10;;;3.50;;
29776;SDS011;16677;52.224;7.484;2022-09-29T17:20:42;3.93;;;3.20;;
29776;SDS011;16677;52.224;7.484;2022-09-29T17:23:09;6.17;;;4.00;;
29776;SDS011;16677;52.224;7.484;2022-09-29T17:25:41;4.33;;;3.57;;
29776;SDS011;16677;52.224;7.484;2022-09-29T17:28:20;6.93;;;4.13;;
29776;SDS011;16677;52.224;7.484;2022-09-29T17:31:01;6.20;;;5.10;;
29776;SDS011;16677;52.224;7.484;2022-09-29T17:33:28;5.33;;;4.83;;
29776;SDS011;16677;52.224;7.484;2022-09-29T17:35:56;6.13;;;5.13;;
29776;SDS011;16677;52.224;7.484;2022-09-29T17:38:23;6.17;;;5.13;;
29776;SDS011;16677;52.224;7.484;2022-09-29T17:40:55;5.43;;;4.47;;
29776;SDS011;16677;52.224;7.484;2022-09-29T17:43:31;5.67;;;4.87;;
29776;SDS011;16677;52.224;7.484;2022-09-29T17:45:59;6.47;;;4.77;;
29776;SDS011;16677;52.224;7.484;2022-09-29T17:48:27;7.57;;;6.80;;
29776;SDS011;16677;52.224;7.484;2022-09-29T17:50:55;9.70;;;7.50;;
29776;SDS011;16677;52.224;7.484;2022-09-29T17:53:24;8.03;;;7.00;;
29776;SDS011;16677;52.224;7.484;2022-09-29T17:56:05;8.17;;;7.37;;
29776;SDS011;16677;52.224;7.484;2022-09-29T17:58:47;6.57;;;5.97;;
29776;SDS011;16677;52.224;7.484;2022-09-29T18:01:15;7.83;;;6.30;;
29776;SDS011;16677;52.224;7.484;2022-09-29T18:03:45;7.47;;;5.63;;
29776;SDS011;16677;52.224;7.484;2022-09-29T18:06:27;6.93;;;4.70;;
29776;SDS011;16677;52.224;7.484;2022-09-29T18:08:54;8.63;;;4.00;;
29776;SDS011;16677;52.224;7.484;2022-09-29T18:11:23;9.20;;;7.00;;
29776;SDS011;16677;52.224;7.484;2022-09-29T18:13:51;9.90;;;8.60;;
29776;SDS011;16677;52.224;7.484;2022-09-29T18:16:19;9.73;;;8.83;;
29776;SDS011;16677;52.224;7.484;2022-09-29T18:18:47;8.03;;;7.30;;
29776;SDS011;16677;52.224;7.484;2022-09-29T18:21:21;10.17;;;8.03;;
29776;SDS011;16677;52.224;7.484;2022-09-29T18:23:49;13.27;;;11.90;;
29776;SDS011;16677;52.224;7.484;2022-09-29T18:26:16;12.87;;;11.37;;
29776;SDS011;16677;52.224;7.484;2022-09-29T18:28:43;12.03;;;8.77;;
29776;SDS011;16677;52.224;7.484;2022-09-29T18:31:21;8.33;;;7.53;;
29776;SDS011;16677;52.224;7.484;2022-09-29T18:33:51;8.40;;;7.70;;
29776;SDS011;16677;52.224;7.484;2022-09-29T18:36:20;10.07;;;8.73;;
29776;SDS011;16677;52.224;7.484;2022-09-29T18:38:47;11.07;;;8.30;;
29776;SDS011;16677;52.224;7.484;2022-09-29T18:41:18;15.63;;;10.27;;
29776;SDS011;16677;52.224;7.484;2022-09-29T18:43:46;10.87;;;9.77;;
29776;SDS011;16677;52.224;7.484;2022-09-29T18:46:14;13.17;;;10.80;;
29776;SDS011;16677;52.224;7.484;2022-09-29T18:48:43;14.20;;;11.40;;
29776;SDS011;16677;52.224;7.484;2022-09-29T18:51:10;19.13;;;15.27;;
29776;SDS011;16677;52.224;7.484;2022-09-29T18:53:39;18.33;;;16.17;;
29776;SDS011;16677;52.224;7.484;2022-09-29T18:56:14;20.90;;;18.17;;
29776;SDS011;16677;52.224;7.484;2022-09-29T18:58:58;21.00;;;18.10;;
29776;SDS011;16677;52.224;7.484;2022-09-29T19:01:27;25.23;;;21.50;;
29776;SDS011;16677;52.224;7.484;2022-09-29T19:04:01;24.30;;;21.27;;
29776;SDS011;16677;52.224;7.484;2022-09-29T19:06:30;25.00;;;19.27;;
29776;SDS011;16677;52.224;7.484;2022-09-29T19:09:01;18.67;;;16.10;;
29776;SDS011;16677;52.224;7.484;2022-09-29T19:11:29;19.57;;;15.40;;
29776;SDS011;16677;52.224;7.484;2022-09-29T19:14:03;15.37;;;13.13;;
29776;SDS011;16677;52.224;7.484;2022-09-29T19:16:36;16.50;;;12.17;;
29776;SDS011;16677;52.224;7.484;2022-09-29T19:19:03;13.00;;;11.70;;
29776;SDS011;16677;52.224;7.484;2022-09-29T19:21:36;12.23;;;11.07;;
29776;SDS011;16677;52.224;7.484;2022-09-29T19:24:04;12.30;;;10.63;;
29776;SDS011;16677;52.224;7.484;2022-09-29T19:26:33;11.03;;;10.00;;
29776;SDS011;16677;52.224;7.484;2022-09-29T19:29:03;11.43;;;10.10;;
29776;SDS011;16677;52.224;7.484;2022-09-29T19:31:31;11.73;;;10.47;;
29776;SDS011;16677;52.224;7.484;2022-09-29T19:34:00;11.20;;;10.13;;
29776;SDS011;16677;52.224;7.484;2022-09-29T19:36:28;12.87;;;11.57;;
29776;SDS011;16677;52.224;7.484;2022-09-29T19:38:55;14.30;;;12.93;;
29776;SDS011;16677;52.224;7.484;2022-09-29T19:41:24;17.13;;;14.53;;
29776;SDS011;16677;52.224;7.484;2022-09-29T19:43:58;16.83;;;14.97;;
29776;SDS011;16677;52.224;7.484;2022-09-29T19:46:25;17.73;;;15.97;;
29776;SDS011;16677;52.224;7.484;2022-09-29T19:48:53;15.50;;;13.97;;
29776;SDS011;16677;52.224;7.484;2022-09-29T19:51:21;13.60;;;12.40;;
29776;SDS011;16677;52.224;7.484;2022-09-29T19:54:25;15.30;;;13.83;;
29776;SDS011;16677;52.224;7.484;2022-09-29T19:56:55;14.17;;;12.67;;
29776;SDS011;16677;52.224;7.484;2022-09-29T19:59:26;13.57;;;12.27;;
29776;SDS011;16677;52.224;7.484;2022-09-29T20:01:59;14.40;;;13.00;;
29776;SDS011;16677;52.224;7.484;2022-09-29T20:04:31;14.87;;;12.27;;
29776;SDS011;16677;52.224;7.484;2022-09-29T20:07:00;14.20;;;12.80;;
29776;SDS011;16677;52.224;7.484;2022-09-29T20:09:29;15.70;;;14.20;;
29776;SDS011;16677;52.224;7.484;2022-09-29T20:11:59;15.03;;;13.63;;
29776;SDS011;16677;52.224;7.484;2022-09-29T20:14:27;14.73;;;13.23;;
29776;SDS011;16677;52.224;7.484;2022-09-29T20:16:56;15.43;;;13.83;;
29776;SDS011;16677;52.224;7.484;2022-09-29T20:19:25;21.60;;;13.47;;
29776;SDS011;16677;52.224;7.484;2022-09-29T20:21:55;19.93;;;15.00;;
29776;SDS011;16677;52.224;7.484;2022-09-29T20:24:23;17.43;;;14.50;;
29776;SDS011;16677;52.224;7.484;2022-09-29T20:26:51;16.13;;;14.43;;
29776;SDS011;16677;52.224;7.484;2022-09-29T20:29:24;16.20;;;14.60;;
29776;SDS011;16677;52.224;7.484;2022-09-29T20:31:53;17.03;;;15.33;;
29776;SDS011;16677;52.224;7.484;2022-09-29T20:34:20;18.23;;;15.27;;
29776;SDS011;16677;52.224;7.484;2022-09-29T20:36:48;17.47;;;15.57;;